Spray, Oregon
Current Conditions -  °F | °C
As of 10:55 AM on Saturday 25 Oct 2014 (Local Time) from KGCD Reporting Station
Clear Clear  
Wind Chill: 65°   Ceiling: Unl
Heat Index: 65°   Visibility: 10mi
Dew Point: 30°   Wind: 25mph
Humidity: 27%   Direction: 190°S
Pressure: 29.69"   Gusts: 36mph
Location:  44.83°N, 119.79°W
Report Text: KGCD 251755Z AUTO 19022G31KT 10SM CLR 18/M01 A2969 RMK AO2 T01841009 10200 20157
Loading
Personal Weather Stations






























Interactive Weather Map
Tropical Storm Tracking
New forecast layout! Learn more

10-Day Weather Forecast

Advertisements
Track Severe Weather on mobile